Fragaria, Washington
Current Conditions -  °F | °C
As of 3:55 PM on Saturday 25 Oct 2014 (Local Time) from KPWT Reporting Station
Overcast Overcast  
Wind Chill: 12°   Ceiling: 3800
Heat Index: 12°   Visibility: 10mi
Dew Point: 12°   Wind: 0mph
Humidity: 100%   Direction: NA
Pressure: 29.29"   Gusts: NA
Location:  47.4285°N, 122.573°W
Report Text: KPWT 252255Z AUTO 00000KT 10SM OVC038 12/12 A2929 RMK AO1 P0003
Loading
Personal Weather Stations






























Interactive Weather Map
Tropical Storm Tracking
New forecast layout! Learn more

10-Day Weather Forecast

Advertisements
Track Severe Weather on mobile